CheckWX is a tool to help pilots better visualize weather data.  It is not intended as a substitute for an official pre-flight weather briefing.

08:37:39 UTC

KINW METAR
Winslow-Lindbergh Regional Airport
Winslow, Arizona, USA
Current

42 mins ago

KINW 280756Z AUTO 24009KT 10SM CLR 00/M07 A3007 RMK AO2 SLP178 T00001072
Observed
Mar-28 @ 07:56 UTC
Wind
  • 240° at 9 KTS
Visibility
10 SM
Flight Rules
VFR
Cloud Levels
  • Clear skies
Temperature
C / 32°F
Dewpoint
-7°C / 19°F
Humidity
60%
Altimeter
30.07" Hg
Pressure
1018.32 hPa
Previous

3 hours ago

KINW 280556Z AUTO 23011KT 10SM CLR 01/M06 A3006 RMK AO2 SLP172 T00061061 10072 20000 51015
Observed
Mar-28 @ 05:56 UTC
Wind
  • 230° at 11 KTS
Visibility
10 SM
Flight Rules
VFR
Cloud Levels
  • Clear skies
Temperature
C / 34°F
Dewpoint
-6°C / 21°F
Humidity
60%
Altimeter
30.06" Hg
Pressure
1017.92 hPa
Previous

4 hours ago

KINW 280456Z AUTO 23007KT 10SM SCT070 BKN085 01/M04 A3005 RMK AO2 SLP170 T00111044
Observed
Mar-28 @ 04:56 UTC
Wind
  • 230° at 7 KTS
Visibility
10 SM
Flight Rules
VFR
Cloud Levels
  • Scattered at 7,000' AGL
  • Broken at 8,500' AGL
Temperature
C / 34°F
Dewpoint
-4°C / 25°F
Humidity
70%
Altimeter
30.05" Hg
Pressure
1017.62 hPa